sensor_id;sensor_type;location;lat;lon;timestamp;temperature;humidity
7598;DHT22;3840;59.32098800;18.06423600;2023-02-02T00:00:43;-0.90;99.90
7598;DHT22;3840;59.32098800;18.06423600;2023-02-02T00:03:09;-0.80;99.90
7598;DHT22;3840;59.32098800;18.06423600;2023-02-02T00:05:35;-0.80;99.90
7598;DHT22;3840;59.32098800;18.06423600;2023-02-02T00:08:01;-0.90;99.90
7598;DHT22;3840;59.32098800;18.06423600;2023-02-02T00:10:27;-0.80;99.90
7598;DHT22;3840;59.32098800;18.06423600;2023-02-02T00:12:53;-0.80;99.90
7598;DHT22;3840;59.32098800;18.06423600;2023-02-02T00:15:22;-0.80;99.90
7598;DHT22;3840;59.32098800;18.06423600;2023-02-02T00:17:48;-0.80;99.90
7598;DHT22;3840;59.32098800;18.06423600;2023-02-02T00:20:14;-0.90;99.90
7598;DHT22;3840;59.32098800;18.06423600;2023-02-02T00:22:40;-0.90;99.90
7598;DHT22;3840;59.32098800;18.06423600;2023-02-02T00:25:06;-0.90;99.90
7598;DHT22;3840;59.32098800;18.06423600;2023-02-02T00:27:32;-0.90;99.90
7598;DHT22;3840;59.32098800;18.06423600;2023-02-02T00:29:58;-0.80;99.90
7598;DHT22;3840;59.32098800;18.06423600;2023-02-02T00:32:24;-0.90;99.90
7598;DHT22;3840;59.32098800;18.06423600;2023-02-02T00:34:50;-0.90;99.90
7598;DHT22;3840;59.32098800;18.06423600;2023-02-02T00:37:15;-0.90;99.90
7598;DHT22;3840;59.32098800;18.06423600;2023-02-02T00:39:41;-0.90;99.90
7598;DHT22;3840;59.32098800;18.06423600;2023-02-02T00:42:11;-1.00;99.90
7598;DHT22;3840;59.32098800;18.06423600;2023-02-02T00:44:37;-1.00;99.90
7598;DHT22;3840;59.32098800;18.06423600;2023-02-02T00:47:21;-1.00;99.90
7598;DHT22;3840;59.32098800;18.06423600;2023-02-02T00:49:47;-1.10;99.90
7598;DHT22;3840;59.32098800;18.06423600;2023-02-02T00:52:13;-1.00;99.90
7598;DHT22;3840;59.32098800;18.06423600;2023-02-02T00:54:39;-1.10;99.90
7598;DHT22;3840;59.32098800;18.06423600;2023-02-02T00:57:05;-0.90;99.90
7598;DHT22;3840;59.32098800;18.06423600;2023-02-02T00:59:31;-1.10;99.90
7598;DHT22;3840;59.32098800;18.06423600;2023-02-02T01:01:57;-0.90;99.90
7598;DHT22;3840;59.32098800;18.06423600;2023-02-02T01:04:23;-0.90;99.90
7598;DHT22;3840;59.32098800;18.06423600;2023-02-02T01:06:49;-1.10;99.90
7598;DHT22;3840;59.32098800;18.06423600;2023-02-02T01:09:14;-1.10;99.90
7598;DHT22;3840;59.32098800;18.06423600;2023-02-02T01:11:40;-1.20;99.90
7598;DHT22;3840;59.32098800;18.06423600;2023-02-02T01:14:06;-1.20;99.90
7598;DHT22;3840;59.32098800;18.06423600;2023-02-02T01:16:32;-1.20;99.90
7598;DHT22;3840;59.32098800;18.06423600;2023-02-02T01:18:57;-1.20;99.90
7598;DHT22;3840;59.32098800;18.06423600;2023-02-02T01:21:23;-1.30;99.90
7598;DHT22;3840;59.32098800;18.06423600;2023-02-02T01:23:49;-1.40;99.90
7598;DHT22;3840;59.32098800;18.06423600;2023-02-02T01:26:15;-1.40;99.90
7598;DHT22;3840;59.32098800;18.06423600;2023-02-02T01:28:41;-1.40;99.90
7598;DHT22;3840;59.32098800;18.06423600;2023-02-02T01:31:15;-1.50;99.90
7598;DHT22;3840;59.32098800;18.06423600;2023-02-02T01:33:42;-1.60;99.90
7598;DHT22;3840;59.32098800;18.06423600;2023-02-02T01:36:11;-1.60;99.90
7598;DHT22;3840;59.32098800;18.06423600;2023-02-02T01:38:37;-1.70;99.90
7598;DHT22;3840;59.32098800;18.06423600;2023-02-02T01:41:04;-1.60;99.90
7598;DHT22;3840;59.32098800;18.06423600;2023-02-02T01:46:23;-1.60;99.90
7598;DHT22;3840;59.32098800;18.06423600;2023-02-02T01:48:58;-1.70;99.90
7598;DHT22;3840;59.32098800;18.06423600;2023-02-02T01:51:30;-1.80;99.90
7598;DHT22;3840;59.32098800;18.06423600;2023-02-02T01:53:57;-1.90;99.90
7598;DHT22;3840;59.32098800;18.06423600;2023-02-02T01:56:34;-2.00;99.90
7598;DHT22;3840;59.32098800;18.06423600;2023-02-02T01:59:01;-2.00;99.90
7598;DHT22;3840;59.32098800;18.06423600;2023-02-02T02:01:28;-2.10;99.90
7598;DHT22;3840;59.32098800;18.06423600;2023-02-02T02:03:54;-2.20;99.90
7598;DHT22;3840;59.32098800;18.06423600;2023-02-02T02:06:20;-2.20;99.90
7598;DHT22;3840;59.32098800;18.06423600;2023-02-02T02:08:55;-2.20;99.90
7598;DHT22;3840;59.32098800;18.06423600;2023-02-02T02:11:23;-2.30;99.90
7598;DHT22;3840;59.32098800;18.06423600;2023-02-02T02:13:50;-2.30;99.90
7598;DHT22;3840;59.32098800;18.06423600;2023-02-02T02:31:25;-2.50;99.90
7598;DHT22;3840;59.32098800;18.06423600;2023-02-02T02:34:15;-2.50;99.90
7598;DHT22;3840;59.32098800;18.06423600;2023-02-02T02:36:57;-2.50;99.90
7598;DHT22;3840;59.32098800;18.06423600;2023-02-02T02:42:06;-2.50;99.90
7598;DHT22;3840;59.32098800;18.06423600;2023-02-02T02:44:34;-2.40;99.90
7598;DHT22;3840;59.32098800;18.06423600;2023-02-02T02:47:01;-2.40;99.90
7598;DHT22;3840;59.32098800;18.06423600;2023-02-02T02:49:27;-2.40;99.90
7598;DHT22;3840;59.32098800;18.06423600;2023-02-02T02:51:53;-2.50;99.90
7598;DHT22;3840;59.32098800;18.06423600;2023-02-02T02:54:32;-2.40;99.90
7598;DHT22;3840;59.32098800;18.06423600;2023-02-02T03:07:29;-2.50;99.90
7598;DHT22;3840;59.32098800;18.06423600;2023-02-02T03:10:00;-2.50;99.90
7598;DHT22;3840;59.32098800;18.06423600;2023-02-02T03:12:27;-2.50;99.90
7598;DHT22;3840;59.32098800;18.06423600;2023-02-02T03:14:52;-2.50;99.90
7598;DHT22;3840;59.32098800;18.06423600;2023-02-02T03:17:18;-2.50;99.90
7598;DHT22;3840;59.32098800;18.06423600;2023-02-02T03:19:44;-2.40;99.90
7598;DHT22;3840;59.32098800;18.06423600;2023-02-02T03:22:09;-2.40;99.90
7598;DHT22;3840;59.32098800;18.06423600;2023-02-02T03:24:35;-2.30;99.90
7598;DHT22;3840;59.32098800;18.06423600;2023-02-02T03:27:01;-2.40;99.90
7598;DHT22;3840;59.32098800;18.06423600;2023-02-02T03:29:27;-2.30;99.90
7598;DHT22;3840;59.32098800;18.06423600;2023-02-02T03:31:53;-2.40;99.90
7598;DHT22;3840;59.32098800;18.06423600;2023-02-02T03:34:19;-2.40;99.90
7598;DHT22;3840;59.32098800;18.06423600;2023-02-02T03:36:44;-2.40;99.90
7598;DHT22;3840;59.32098800;18.06423600;2023-02-02T03:39:10;-2.40;99.90
7598;DHT22;3840;59.32098800;18.06423600;2023-02-02T03:41:36;-2.30;99.90
7598;DHT22;3840;59.32098800;18.06423600;2023-02-02T03:44:01;-2.30;99.90
7598;DHT22;3840;59.32098800;18.06423600;2023-02-02T03:46:27;-2.10;99.90
7598;DHT22;3840;59.32098800;18.06423600;2023-02-02T03:48:53;-2.30;99.90
7598;DHT22;3840;59.32098800;18.06423600;2023-02-02T03:51:18;-2.30;99.90
7598;DHT22;3840;59.32098800;18.06423600;2023-02-02T03:53:44;-2.20;99.90
7598;DHT22;3840;59.32098800;18.06423600;2023-02-02T03:56:14;-2.20;99.90
7598;DHT22;3840;59.32098800;18.06423600;2023-02-02T03:58:39;-2.20;99.90
7598;DHT22;3840;59.32098800;18.06423600;2023-02-02T04:01:08;-2.10;99.90
7598;DHT22;3840;59.32098800;18.06423600;2023-02-02T04:03:34;-2.10;99.90
7598;DHT22;3840;59.32098800;18.06423600;2023-02-02T04:06:00;-2.00;99.90
7598;DHT22;3840;59.32098800;18.06423600;2023-02-02T04:08:26;-2.00;99.90
7598;DHT22;3840;59.32098800;18.06423600;2023-02-02T04:10:53;-2.00;99.90
7598;DHT22;3840;59.32098800;18.06423600;2023-02-02T04:13:19;-2.00;99.90
7598;DHT22;3840;59.32098800;18.06423600;2023-02-02T04:15:45;-1.90;99.90
7598;DHT22;3840;59.32098800;18.06423600;2023-02-02T04:18:10;-1.90;99.90
7598;DHT22;3840;59.32098800;18.06423600;2023-02-02T04:20:36;-1.90;99.90
7598;DHT22;3840;59.32098800;18.06423600;2023-02-02T04:23:02;-2.00;99.90
7598;DHT22;3840;59.32098800;18.06423600;2023-02-02T04:25:28;-2.00;99.90
7598;DHT22;3840;59.32098800;18.06423600;2023-02-02T04:27:53;-2.00;99.90
7598;DHT22;3840;59.32098800;18.06423600;2023-02-02T04:30:19;-2.00;99.90
7598;DHT22;3840;59.32098800;18.06423600;2023-02-02T04:32:45;-2.00;99.90
7598;DHT22;3840;59.32098800;18.06423600;2023-02-02T04:35:11;-1.90;99.90
7598;DHT22;3840;59.32098800;18.06423600;2023-02-02T04:37:37;-2.00;99.90
7598;DHT22;3840;59.32098800;18.06423600;2023-02-02T04:40:03;-2.00;99.90
7598;DHT22;3840;59.32098800;18.06423600;2023-02-02T04:42:29;-2.00;99.90
7598;DHT22;3840;59.32098800;18.06423600;2023-02-02T04:44:57;-2.00;99.90
7598;DHT22;3840;59.32098800;18.06423600;2023-02-02T04:47:22;-2.00;99.90
7598;DHT22;3840;59.32098800;18.06423600;2023-02-02T04:49:48;-2.10;99.90
7598;DHT22;3840;59.32098800;18.06423600;2023-02-02T04:52:14;-2.10;99.90
7598;DHT22;3840;59.32098800;18.06423600;2023-02-02T04:54:40;-2.10;99.90
7598;DHT22;3840;59.32098800;18.06423600;2023-02-02T04:57:06;-2.00;99.90
7598;DHT22;3840;59.32098800;18.06423600;2023-02-02T04:59:31;-2.00;99.90
7598;DHT22;3840;59.32098800;18.06423600;2023-02-02T05:02:01;-2.10;99.90
7598;DHT22;3840;59.32098800;18.06423600;2023-02-02T05:04:27;-2.00;99.90
7598;DHT22;3840;59.32098800;18.06423600;2023-02-02T05:06:52;-2.00;99.90
7598;DHT22;3840;59.32098800;18.06423600;2023-02-02T05:09:18;-1.90;99.90
7598;DHT22;3840;59.32098800;18.06423600;2023-02-02T05:11:44;-2.10;99.90
7598;DHT22;3840;59.32098800;18.06423600;2023-02-02T05:14:10;-2.10;99.90
7598;DHT22;3840;59.32098800;18.06423600;2023-02-02T05:16:36;-2.00;99.90
7598;DHT22;3840;59.32098800;18.06423600;2023-02-02T05:19:01;-2.10;99.90
7598;DHT22;3840;59.32098800;18.06423600;2023-02-02T05:21:27;-2.10;99.90
7598;DHT22;3840;59.32098800;18.06423600;2023-02-02T05:23:53;-2.00;99.90
7598;DHT22;3840;59.32098800;18.06423600;2023-02-02T05:26:24;-2.10;99.90
7598;DHT22;3840;59.32098800;18.06423600;2023-02-02T05:28:50;-2.10;99.90
7598;DHT22;3840;59.32098800;18.06423600;2023-02-02T05:31:17;-2.10;99.90
7598;DHT22;3840;59.32098800;18.06423600;2023-02-02T05:33:42;-2.10;99.90
7598;DHT22;3840;59.32098800;18.06423600;2023-02-02T05:36:09;-2.20;99.90
7598;DHT22;3840;59.32098800;18.06423600;2023-02-02T05:38:34;-2.10;99.90
7598;DHT22;3840;59.32098800;18.06423600;2023-02-02T05:41:00;-2.20;99.90
7598;DHT22;3840;59.32098800;18.06423600;2023-02-02T05:43:28;-2.20;99.90
7598;DHT22;3840;59.32098800;18.06423600;2023-02-02T05:45:54;-2.20;99.90
7598;DHT22;3840;59.32098800;18.06423600;2023-02-02T05:48:19;-2.20;99.90
7598;DHT22;3840;59.32098800;18.06423600;2023-02-02T05:50:53;-2.20;99.90
7598;DHT22;3840;59.32098800;18.06423600;2023-02-02T05:53:20;-2.20;99.90
7598;DHT22;3840;59.32098800;18.06423600;2023-02-02T05:55:46;-2.20;99.90
7598;DHT22;3840;59.32098800;18.06423600;2023-02-02T05:58:12;-2.20;99.90
7598;DHT22;3840;59.32098800;18.06423600;2023-02-02T06:00:38;-2.20;99.90
7598;DHT22;3840;59.32098800;18.06423600;2023-02-02T06:03:04;-2.20;99.90
7598;DHT22;3840;59.32098800;18.06423600;2023-02-02T06:05:29;-2.20;99.90
7598;DHT22;3840;59.32098800;18.06423600;2023-02-02T06:07:55;-2.20;99.90
7598;DHT22;3840;59.32098800;18.06423600;2023-02-02T06:10:22;-2.00;99.90
7598;DHT22;3840;59.32098800;18.06423600;2023-02-02T06:12:47;-2.20;99.90
7598;DHT22;3840;59.32098800;18.06423600;2023-02-02T06:15:13;-2.20;99.90
7598;DHT22;3840;59.32098800;18.06423600;2023-02-02T06:17:39;-2.20;99.90
7598;DHT22;3840;59.32098800;18.06423600;2023-02-02T06:20:05;-2.20;99.90
7598;DHT22;3840;59.32098800;18.06423600;2023-02-02T06:22:31;-2.20;99.90
7598;DHT22;3840;59.32098800;18.06423600;2023-02-02T06:24:57;-2.20;99.90
7598;DHT22;3840;59.32098800;18.06423600;2023-02-02T06:27:23;-2.20;99.90
7598;DHT22;3840;59.32098800;18.06423600;2023-02-02T06:29:49;-2.20;99.90
7598;DHT22;3840;59.32098800;18.06423600;2023-02-02T06:32:14;-2.30;99.90
7598;DHT22;3840;59.32098800;18.06423600;2023-02-02T06:34:40;-2.30;99.90
7598;DHT22;3840;59.32098800;18.06423600;2023-02-02T06:37:06;-2.30;99.90
7598;DHT22;3840;59.32098800;18.06423600;2023-02-02T06:39:32;-2.30;99.90
7598;DHT22;3840;59.32098800;18.06423600;2023-02-02T06:41:57;-2.30;99.90
7598;DHT22;3840;59.32098800;18.06423600;2023-02-02T06:44:23;-2.30;99.90
7598;DHT22;3840;59.32098800;18.06423600;2023-02-02T06:46:49;-2.30;99.90
7598;DHT22;3840;59.32098800;18.06423600;2023-02-02T06:49:14;-2.30;99.90
7598;DHT22;3840;59.32098800;18.06423600;2023-02-02T06:51:40;-2.30;99.90
7598;DHT22;3840;59.32098800;18.06423600;2023-02-02T06:54:06;-2.30;99.90
7598;DHT22;3840;59.32098800;18.06423600;2023-02-02T06:56:31;-2.40;99.90
7598;DHT22;3840;59.32098800;18.06423600;2023-02-02T06:58:57;-2.30;99.90
7598;DHT22;3840;59.32098800;18.06423600;2023-02-02T07:01:23;-2.30;99.90
7598;DHT22;3840;59.32098800;18.06423600;2023-02-02T07:03:49;-2.30;99.90
7598;DHT22;3840;59.32098800;18.06423600;2023-02-02T07:06:20;-2.30;99.90
7598;DHT22;3840;59.32098800;18.06423600;2023-02-02T07:08:47;-2.40;99.90
7598;DHT22;3840;59.32098800;18.06423600;2023-02-02T07:11:15;-2.40;99.90
7598;DHT22;3840;59.32098800;18.06423600;2023-02-02T07:13:42;-2.30;99.90
7598;DHT22;3840;59.32098800;18.06423600;2023-02-02T07:16:07;-2.40;99.90
7598;DHT22;3840;59.32098800;18.06423600;2023-02-02T07:18:34;-2.40;99.90
7598;DHT22;3840;59.32098800;18.06423600;2023-02-02T07:21:01;-2.40;99.90
7598;DHT22;3840;59.32098800;18.06423600;2023-02-02T07:23:28;-2.40;99.90
7598;DHT22;3840;59.32098800;18.06423600;2023-02-02T07:26:15;-2.30;99.90
7598;DHT22;3840;59.32098800;18.06423600;2023-02-02T07:28:41;-2.40;99.90
7598;DHT22;3840;59.32098800;18.06423600;2023-02-02T07:31:18;-2.30;99.90
7598;DHT22;3840;59.32098800;18.06423600;2023-02-02T07:33:45;-2.40;99.90
7598;DHT22;3840;59.32098800;18.06423600;2023-02-02T07:36:13;-2.30;99.90
7598;DHT22;3840;59.32098800;18.06423600;2023-02-02T07:38:41;-2.30;99.90
7598;DHT22;3840;59.32098800;18.06423600;2023-02-02T07:41:07;-2.40;99.90
7598;DHT22;3840;59.32098800;18.06423600;2023-02-02T07:43:32;-2.40;99.90
7598;DHT22;3840;59.32098800;18.06423600;2023-02-02T07:46:03;-2.40;99.90
7598;DHT22;3840;59.32098800;18.06423600;2023-02-02T07:48:30;-2.40;99.90
7598;DHT22;3840;59.32098800;18.06423600;2023-02-02T07:51:04;-2.40;99.90
7598;DHT22;3840;59.32098800;18.06423600;2023-02-02T07:53:31;-2.40;99.90
7598;DHT22;3840;59.32098800;18.06423600;2023-02-02T07:56:10;-2.50;99.90
7598;DHT22;3840;59.32098800;18.06423600;2023-02-02T07:58:36;-2.40;99.90
7598;DHT22;3840;59.32098800;18.06423600;2023-02-02T08:01:03;-2.40;99.90
7598;DHT22;3840;59.32098800;18.06423600;2023-02-02T08:03:29;-2.40;99.90
7598;DHT22;3840;59.32098800;18.06423600;2023-02-02T08:05:56;-2.40;99.90
7598;DHT22;3840;59.32098800;18.06423600;2023-02-02T08:08:22;-2.30;99.90
7598;DHT22;3840;59.32098800;18.06423600;2023-02-02T08:10:52;-2.40;99.90
7598;DHT22;3840;59.32098800;18.06423600;2023-02-02T08:13:18;-2.30;99.90
7598;DHT22;3840;59.32098800;18.06423600;2023-02-02T08:15:44;-2.40;99.90
7598;DHT22;3840;59.32098800;18.06423600;2023-02-02T08:18:10;-2.40;99.90
7598;DHT22;3840;59.32098800;18.06423600;2023-02-02T08:20:36;-2.50;99.90
7598;DHT22;3840;59.32098800;18.06423600;2023-02-02T08:23:02;-2.50;99.90
7598;DHT22;3840;59.32098800;18.06423600;2023-02-02T08:25:28;-2.50;99.90
7598;DHT22;3840;59.32098800;18.06423600;2023-02-02T08:27:55;-2.20;99.90
7598;DHT22;3840;59.32098800;18.06423600;2023-02-02T08:30:23;-2.40;99.90
7598;DHT22;3840;59.32098800;18.06423600;2023-02-02T08:32:49;-2.30;99.90
7598;DHT22;3840;59.32098800;18.06423600;2023-02-02T08:35:15;-2.10;99.90
7598;DHT22;3840;59.32098800;18.06423600;2023-02-02T08:37:41;-2.30;99.90
7598;DHT22;3840;59.32098800;18.06423600;2023-02-02T08:40:07;-2.30;99.90
7598;DHT22;3840;59.32098800;18.06423600;2023-02-02T08:42:33;-2.30;99.90
7598;DHT22;3840;59.32098800;18.06423600;2023-02-02T08:44:59;-2.30;99.90
7598;DHT22;3840;59.32098800;18.06423600;2023-02-02T08:47:28;-2.40;99.90
7598;DHT22;3840;59.32098800;18.06423600;2023-02-02T08:49:54;-2.40;99.90
7598;DHT22;3840;59.32098800;18.06423600;2023-02-02T08:52:20;-2.40;99.90
7598;DHT22;3840;59.32098800;18.06423600;2023-02-02T08:54:45;-2.50;99.90
7598;DHT22;3840;59.32098800;18.06423600;2023-02-02T08:57:11;-2.60;99.90
7598;DHT22;3840;59.32098800;18.06423600;2023-02-02T08:59:37;-2.50;99.90
7598;DHT22;3840;59.32098800;18.06423600;2023-02-02T09:02:03;-2.70;99.90
7598;DHT22;3840;59.32098800;18.06423600;2023-02-02T09:04:28;-2.70;99.90
7598;DHT22;3840;59.32098800;18.06423600;2023-02-02T09:06:54;-2.80;99.90
7598;DHT22;3840;59.32098800;18.06423600;2023-02-02T09:09:20;-2.90;99.90
7598;DHT22;3840;59.32098800;18.06423600;2023-02-02T09:11:45;-2.90;99.90
7598;DHT22;3840;59.32098800;18.06423600;2023-02-02T09:14:12;-2.80;99.90
7598;DHT22;3840;59.32098800;18.06423600;2023-02-02T09:16:38;-2.90;99.90
7598;DHT22;3840;59.32098800;18.06423600;2023-02-02T09:19:05;-2.90;99.90
7598;DHT22;3840;59.32098800;18.06423600;2023-02-02T09:21:31;-3.00;99.90
7598;DHT22;3840;59.32098800;18.06423600;2023-02-02T09:24:08;-3.10;99.90
7598;DHT22;3840;59.32098800;18.06423600;2023-02-02T09:26:34;-3.00;99.90
7598;DHT22;3840;59.32098800;18.06423600;2023-02-02T09:29:02;-3.00;99.90
7598;DHT22;3840;59.32098800;18.06423600;2023-02-02T09:31:32;-2.90;99.90
7598;DHT22;3840;59.32098800;18.06423600;2023-02-02T09:34:06;-2.80;99.90
7598;DHT22;3840;59.32098800;18.06423600;2023-02-02T09:36:32;-2.80;99.90
7598;DHT22;3840;59.32098800;18.06423600;2023-02-02T09:38:58;-2.80;99.90
7598;DHT22;3840;59.32098800;18.06423600;2023-02-02T09:44:33;-2.60;99.90
7598;DHT22;3840;59.32098800;18.06423600;2023-02-02T09:47:32;-2.70;99.90
7598;DHT22;3840;59.32098800;18.06423600;2023-02-02T09:50:33;-2.70;99.90
7598;DHT22;3840;59.32098800;18.06423600;2023-02-02T09:55:45;-2.50;99.90
7598;DHT22;3840;59.32098800;18.06423600;2023-02-02T09:58:15;-2.50;99.90
7598;DHT22;3840;59.32098800;18.06423600;2023-02-02T10:00:50;-2.40;99.90
7598;DHT22;3840;59.32098800;18.06423600;2023-02-02T10:03:22;-2.30;99.90
7598;DHT22;3840;59.32098800;18.06423600;2023-02-02T10:08:56;-2.30;99.90
7598;DHT22;3840;59.32098800;18.06423600;2023-02-02T10:11:33;-2.20;99.90
7598;DHT22;3840;59.32098800;18.06423600;2023-02-02T10:14:06;-2.20;99.90
7598;DHT22;3840;59.32098800;18.06423600;2023-02-02T10:16:36;-2.10;99.90
7598;DHT22;3840;59.32098800;18.06423600;2023-02-02T10:19:07;-2.20;99.90
7598;DHT22;3840;59.32098800;18.06423600;2023-02-02T10:24:24;-2.20;99.90
7598;DHT22;3840;59.32098800;18.06423600;2023-02-02T10:26:55;-2.20;99.90
7598;DHT22;3840;59.32098800;18.06423600;2023-02-02T10:46:34;-2.30;99.90
7598;DHT22;3840;59.32098800;18.06423600;2023-02-02T10:57:17;-2.30;99.90
7598;DHT22;3840;59.32098800;18.06423600;2023-02-02T11:00:34;-2.30;99.90
7598;DHT22;3840;59.32098800;18.06423600;2023-02-02T11:02:39;-2.40;99.90
7598;DHT22;3840;59.32098800;18.06423600;2023-02-02T11:05:10;-2.40;99.90
7598;DHT22;3840;59.32098800;18.06423600;2023-02-02T11:07:56;-2.50;99.90
7598;DHT22;3840;59.32098800;18.06423600;2023-02-02T11:10:22;-2.50;99.90
7598;DHT22;3840;59.32098800;18.06423600;2023-02-02T11:12:49;-2.30;99.90
7598;DHT22;3840;59.32098800;18.06423600;2023-02-02T11:15:25;-2.50;99.90
7598;DHT22;3840;59.32098800;18.06423600;2023-02-02T11:17:51;-2.40;99.90
7598;DHT22;3840;59.32098800;18.06423600;2023-02-02T11:20:31;-2.40;99.90
7598;DHT22;3840;59.32098800;18.06423600;2023-02-02T11:23:02;-2.30;99.90
7598;DHT22;3840;59.32098800;18.06423600;2023-02-02T11:25:32;-2.20;99.90
7598;DHT22;3840;59.32098800;18.06423600;2023-02-02T11:28:00;-2.10;99.90
7598;DHT22;3840;59.32098800;18.06423600;2023-02-02T11:30:33;-2.20;99.90
7598;DHT22;3840;59.32098800;18.06423600;2023-02-02T11:33:29;-2.30;99.90
7598;DHT22;3840;59.32098800;18.06423600;2023-02-02T11:36:01;-2.40;99.90
7598;DHT22;3840;59.32098800;18.06423600;2023-02-02T11:38:27;-2.40;99.90
7598;DHT22;3840;59.32098800;18.06423600;2023-02-02T11:40:59;-2.40;99.90
7598;DHT22;3840;59.32098800;18.06423600;2023-02-02T11:43:54;-2.40;99.90
7598;DHT22;3840;59.32098800;18.06423600;2023-02-02T11:46:21;-2.40;99.90
7598;DHT22;3840;59.32098800;18.06423600;2023-02-02T11:49:03;-2.40;99.90
7598;DHT22;3840;59.32098800;18.06423600;2023-02-02T11:51:33;-2.50;99.90
7598;DHT22;3840;59.32098800;18.06423600;2023-02-02T11:54:05;-2.40;99.90
7598;DHT22;3840;59.32098800;18.06423600;2023-02-02T11:56:34;-2.60;99.90
7598;DHT22;3840;59.32098800;18.06423600;2023-02-02T11:59:01;-2.60;99.90
7598;DHT22;3840;59.32098800;18.06423600;2023-02-02T12:01:36;-2.60;99.90
7598;DHT22;3840;59.32098800;18.06423600;2023-02-02T12:06:38;-2.60;99.90
7598;DHT22;3840;59.32098800;18.06423600;2023-02-02T12:09:16;-3.10;99.90
7598;DHT22;3840;59.32098800;18.06423600;2023-02-02T12:17:42;-2.60;99.90
7598;DHT22;3840;59.32098800;18.06423600;2023-02-02T12:34:20;-2.70;99.90
7598;DHT22;3840;59.32098800;18.06423600;2023-02-02T12:36:54;-2.60;99.90
7598;DHT22;3840;59.32098800;18.06423600;2023-02-02T12:42:20;-2.60;99.90
7598;DHT22;3840;59.32098800;18.06423600;2023-02-02T12:45:07;-2.70;99.90
7598;DHT22;3840;59.32098800;18.06423600;2023-02-02T12:48:02;-2.70;99.90
7598;DHT22;3840;59.32098800;18.06423600;2023-02-02T12:50:55;-2.70;99.90
7598;DHT22;3840;59.32098800;18.06423600;2023-02-02T12:53:29;-2.70;99.90
7598;DHT22;3840;59.32098800;18.06423600;2023-02-02T13:12:32;-2.50;99.90
7598;DHT22;3840;59.32098800;18.06423600;2023-02-02T13:15:09;-2.60;99.90
7598;DHT22;3840;59.32098800;18.06423600;2023-02-02T13:17:53;-2.60;99.90
7598;DHT22;3840;59.32098800;18.06423600;2023-02-02T13:23:24;-2.50;99.90
7598;DHT22;3840;59.32098800;18.06423600;2023-02-02T13:26:04;-2.40;99.90
7598;DHT22;3840;59.32098800;18.06423600;2023-02-02T13:28:42;-2.40;99.90
7598;DHT22;3840;59.32098800;18.06423600;2023-02-02T13:36:43;-2.50;99.90
7598;DHT22;3840;59.32098800;18.06423600;2023-02-02T13:39:44;-2.50;99.90
7598;DHT22;3840;59.32098800;18.06423600;2023-02-02T13:42:21;-2.50;99.90
7598;DHT22;3840;59.32098800;18.06423600;2023-02-02T13:44:57;-2.50;99.90
7598;DHT22;3840;59.32098800;18.06423600;2023-02-02T13:47:46;-2.50;99.90
7598;DHT22;3840;59.32098800;18.06423600;2023-02-02T13:50:16;-2.60;99.90
7598;DHT22;3840;59.32098800;18.06423600;2023-02-02T13:56:08;-2.60;99.90
7598;DHT22;3840;59.32098800;18.06423600;2023-02-02T13:58:37;-2.50;99.90
7598;DHT22;3840;59.32098800;18.06423600;2023-02-02T14:01:08;-2.50;99.90
7598;DHT22;3840;59.32098800;18.06423600;2023-02-02T14:03:38;-2.50;99.90
7598;DHT22;3840;59.32098800;18.06423600;2023-02-02T14:08:36;-2.50;99.90
7598;DHT22;3840;59.32098800;18.06423600;2023-02-02T14:11:04;-2.60;99.90
7598;DHT22;3840;59.32098800;18.06423600;2023-02-02T14:16:47;-2.50;99.90
7598;DHT22;3840;59.32098800;18.06423600;2023-02-02T14:19:15;-2.50;99.90
7598;DHT22;3840;59.32098800;18.06423600;2023-02-02T14:26:51;-2.60;99.90
7598;DHT22;3840;59.32098800;18.06423600;2023-02-02T14:34:42;-2.60;99.90
7598;DHT22;3840;59.32098800;18.06423600;2023-02-02T14:46:22;-2.70;99.90
7598;DHT22;3840;59.32098800;18.06423600;2023-02-02T14:51:25;-2.70;99.90
7598;DHT22;3840;59.32098800;18.06423600;2023-02-02T14:54:04;-2.70;99.90
7598;DHT22;3840;59.32098800;18.06423600;2023-02-02T14:56:49;-2.70;99.90
7598;DHT22;3840;59.32098800;18.06423600;2023-02-02T14:59:18;-2.70;99.90
7598;DHT22;3840;59.32098800;18.06423600;2023-02-02T15:04:26;-2.80;99.90
7598;DHT22;3840;59.32098800;18.06423600;2023-02-02T15:06:52;-2.80;99.90
7598;DHT22;3840;59.32098800;18.06423600;2023-02-02T15:20:21;-2.80;99.90
7598;DHT22;3840;59.32098800;18.06423600;2023-02-02T15:23:00;-2.80;99.90
7598;DHT22;3840;59.32098800;18.06423600;2023-02-02T15:25:39;-2.90;99.90
7598;DHT22;3840;59.32098800;18.06423600;2023-02-02T15:34:38;-2.90;99.90
7598;DHT22;3840;59.32098800;18.06423600;2023-02-02T15:37:06;-2.80;99.90
7598;DHT22;3840;59.32098800;18.06423600;2023-02-02T15:39:41;-2.90;99.90
7598;DHT22;3840;59.32098800;18.06423600;2023-02-02T15:42:41;-2.90;99.90
7598;DHT22;3840;59.32098800;18.06423600;2023-02-02T15:48:25;-2.90;99.90
7598;DHT22;3840;59.32098800;18.06423600;2023-02-02T15:50:54;-2.90;99.90
7598;DHT22;3840;59.32098800;18.06423600;2023-02-02T15:53:26;-2.90;99.90
7598;DHT22;3840;59.32098800;18.06423600;2023-02-02T15:55:54;-2.90;99.90
7598;DHT22;3840;59.32098800;18.06423600;2023-02-02T15:58:29;-2.90;99.90
7598;DHT22;3840;59.32098800;18.06423600;2023-02-02T16:01:12;-2.90;99.90
7598;DHT22;3840;59.32098800;18.06423600;2023-02-02T16:06:39;-3.00;99.90
7598;DHT22;3840;59.32098800;18.06423600;2023-02-02T16:09:06;-3.00;99.90
7598;DHT22;3840;59.32098800;18.06423600;2023-02-02T16:11:33;-3.00;99.90
7598;DHT22;3840;59.32098800;18.06423600;2023-02-02T16:14:11;-3.00;99.90
7598;DHT22;3840;59.32098800;18.06423600;2023-02-02T16:16:39;-3.00;99.90
7598;DHT22;3840;59.32098800;18.06423600;2023-02-02T16:21:37;-3.10;99.90
7598;DHT22;3840;59.32098800;18.06423600;2023-02-02T16:24:04;-3.10;99.90
7598;DHT22;3840;59.32098800;18.06423600;2023-02-02T16:26:33;-3.10;99.90
7598;DHT22;3840;59.32098800;18.06423600;2023-02-02T16:29:00;-3.10;99.90
7598;DHT22;3840;59.32098800;18.06423600;2023-02-02T16:31:26;-3.10;99.90
7598;DHT22;3840;59.32098800;18.06423600;2023-02-02T16:33:53;-3.20;99.90
7598;DHT22;3840;59.32098800;18.06423600;2023-02-02T16:36:24;-3.20;99.90
7598;DHT22;3840;59.32098800;18.06423600;2023-02-02T16:38:51;-3.30;99.90
7598;DHT22;3840;59.32098800;18.06423600;2023-02-02T16:41:27;-3.40;99.90
7598;DHT22;3840;59.32098800;18.06423600;2023-02-02T16:43:54;-3.40;99.90